Time;durP1;ratioP1;P1;durP2;ratioP2;P2;SDS_P1;SDS_P2;PMS_P1;PMS_P2;Temp;Humidity;BMP_temperature;BMP_pressure;BME280_temperature;BME280_humidity;BME280_pressure;Samples;Min_cycle;Max_cycle;Signal;HPM_P1;HPM_P2
2022/03/02 00:01:36;;;;;;;2.67;1.65;;;;;;;;;;5077813;28;20020;-49
2022/03/02 00:04:02;;;;;;;4.45;2.00;;;;;;;;;;5085144;28;20039;-47
2022/03/02 00:06:28;;;;;;;3.17;2.10;;;;;;;;;;5092197;28;20103;-48
2022/03/02 00:08:54;;;;;;;3.05;1.90;;;;;;;;;;5086813;28;20469;-49
2022/03/02 00:11:20;;;;;;;3.17;1.90;;;;;;;;;;5085710;28;20460;-48
2022/03/02 00:13:46;;;;;;;3.85;2.17;;;;;;;;;;5091370;28;20047;-54
2022/03/02 00:16:12;;;;;;;2.78;2.10;;;;;;;;;;5091701;28;20063;-49
2022/03/02 00:18:38;;;;;;;3.45;2.50;;;;;;;;;;5073918;28;20452;-49
2022/03/02 00:21:04;;;;;;;2.95;2.05;;;;;;;;;;5078889;28;20025;-48
2022/03/02 00:23:31;;;;;;;3.05;2.33;;;;;;;;;;5071711;28;20048;-50
2022/03/02 00:25:57;;;;;;;2.65;1.98;;;;;;;;;;5070968;28;20031;-47
2022/03/02 00:28:24;;;;;;;4.03;2.40;;;;;;;;;;5076375;28;20372;-47
2022/03/02 00:30:50;;;;;;;3.58;2.50;;;;;;;;;;5071996;28;20408;-49
2022/03/02 00:33:16;;;;;;;3.22;1.90;;;;;;;;;;5071873;28;20078;-46
2022/03/02 00:35:42;;;;;;;5.28;2.38;;;;;;;;;;5071621;28;20021;-46
2022/03/02 00:38:10;;;;;;;2.05;1.70;;;;;;;;;;5080236;28;20131;-46
2022/03/02 00:40:37;;;;;;;4.22;2.10;;;;;;;;;;5087427;28;20020;-46
2022/03/02 00:43:03;;;;;;;2.95;2.33;;;;;;;;;;5078947;28;20431;-46
2022/03/02 00:45:31;;;;;;;3.58;2.10;;;;;;;;;;5071603;28;20028;-48
2022/03/02 00:47:57;;;;;;;2.88;1.85;;;;;;;;;;5070754;28;20413;-46
2022/03/02 00:50:23;;;;;;;3.78;1.95;;;;;;;;;;5077986;28;20039;-46
2022/03/02 00:52:50;;;;;;;2.55;1.98;;;;;;;;;;5070663;28;20020;-51
2022/03/02 00:55:16;;;;;;;3.58;2.35;;;;;;;;;;5075876;28;20048;-46
2022/03/02 00:57:42;;;;;;;2.30;1.73;;;;;;;;;;5076107;28;20032;-47
2022/03/02 01:00:08;;;;;;;3.67;2.30;;;;;;;;;;5076067;28;20107;-47
2022/03/02 01:02:34;;;;;;;2.58;2.17;;;;;;;;;;5091956;28;20469;-47
2022/03/02 01:05:00;;;;;;;3.85;2.22;;;;;;;;;;5091060;28;20063;-48
2022/03/02 01:07:27;;;;;;;2.63;2.10;;;;;;;;;;5090968;28;20039;-47
2022/03/02 01:09:53;;;;;;;2.63;1.88;;;;;;;;;;5085372;28;20071;-51
2022/03/02 01:12:18;;;;;;;2.95;1.90;;;;;;;;;;5075440;28;20481;-51
2022/03/02 01:14:44;;;;;;;2.75;1.88;;;;;;;;;;5083533;28;20050;-50
2022/03/02 01:17:10;;;;;;;3.20;2.05;;;;;;;;;;5094407;28;20042;-45
2022/03/02 01:19:38;;;;;;;2.90;1.90;;;;;;;;;;5085939;28;20027;-51
2022/03/02 01:22:05;;;;;;;4.05;2.20;;;;;;;;;;5094196;28;20032;-48
2022/03/02 01:24:31;;;;;;;2.45;2.05;;;;;;;;;;5095515;28;20103;-48
2022/03/02 01:26:57;;;;;;;3.45;1.95;;;;;;;;;;5075822;28;20025;-47
2022/03/02 01:29:23;;;;;;;3.53;1.98;;;;;;;;;;5081285;28;20028;-49
2022/03/02 01:31:49;;;;;;;2.70;1.83;;;;;;;;;;5078859;28;20028;-54
2022/03/02 01:34:15;;;;;;;3.72;2.00;;;;;;;;;;5075221;28;20111;-48
2022/03/02 01:36:41;;;;;;;3.30;2.10;;;;;;;;;;5075248;28;20047;-50
2022/03/02 01:39:07;;;;;;;3.75;2.20;;;;;;;;;;5073939;28;20094;-49
2022/03/02 01:41:34;;;;;;;3.10;2.53;;;;;;;;;;5092519;28;20028;-51
2022/03/02 01:44:00;;;;;;;3.13;2.28;;;;;;;;;;5086214;28;20021;-50
2022/03/02 01:46:26;;;;;;;2.45;2.05;;;;;;;;;;5074661;28;20032;-52
2022/03/02 01:48:52;;;;;;;3.00;1.90;;;;;;;;;;5074321;28;20021;-48
2022/03/02 01:51:19;;;;;;;3.42;2.30;;;;;;;;;;5080216;28;20028;-51
2022/03/02 01:53:45;;;;;;;3.42;2.42;;;;;;;;;;5074780;28;20024;-46
2022/03/02 01:56:12;;;;;;;3.58;2.17;;;;;;;;;;5073560;28;20036;-50
2022/03/02 01:58:38;;;;;;;3.42;2.45;;;;;;;;;;5086080;28;20020;-47
2022/03/02 02:01:04;;;;;;;2.35;1.88;;;;;;;;;;5087574;28;20020;-48
2022/03/02 02:03:30;;;;;;;3.60;2.55;;;;;;;;;;5084879;28;20032;-51
2022/03/02 02:05:56;;;;;;;2.92;2.10;;;;;;;;;;5093633;28;20024;-49
2022/03/02 02:08:23;;;;;;;4.47;2.33;;;;;;;;;;5084965;28;20432;-46
2022/03/02 02:10:50;;;;;;;3.67;2.20;;;;;;;;;;5074356;28;20033;-53
2022/03/02 02:13:16;;;;;;;3.50;1.85;;;;;;;;;;5074158;28;20020;-46
2022/03/02 02:15:42;;;;;;;2.20;1.80;;;;;;;;;;5078222;28;20048;-52
2022/03/02 02:18:08;;;;;;;2.78;2.25;;;;;;;;;;5073816;28;20872;-48
2022/03/02 02:20:35;;;;;;;2.55;1.88;;;;;;;;;;5074371;28;20085;-48
2022/03/02 02:23:01;;;;;;;2.55;2.05;;;;;;;;;;5072918;28;20032;-48
2022/03/02 02:25:27;;;;;;;4.22;2.42;;;;;;;;;;5074306;28;20031;-48
2022/03/02 02:27:54;;;;;;;3.63;2.17;;;;;;;;;;5077718;28;20445;-49
2022/03/02 02:30:21;;;;;;;3.05;2.00;;;;;;;;;;5088388;28;20500;-47
2022/03/02 02:32:47;;;;;;;2.90;1.98;;;;;;;;;;5073971;28;20028;-50
2022/03/02 02:35:13;;;;;;;3.63;2.58;;;;;;;;;;5077222;28;20032;-46
2022/03/02 02:37:39;;;;;;;3.20;1.98;;;;;;;;;;5079727;28;20020;-49
2022/03/02 02:40:10;;;;;;;5.03;2.05;;;;;;;;;;5075827;28;20020;-47
2022/03/02 02:42:37;;;;;;;2.53;2.03;;;;;;;;;;5074064;28;20536;-46
2022/03/02 02:45:04;;;;;;;3.40;1.90;;;;;;;;;;5087857;28;20106;-48
2022/03/02 02:47:30;;;;;;;3.88;2.00;;;;;;;;;;5092158;28;20108;-50
2022/03/02 02:49:56;;;;;;;3.05;2.13;;;;;;;;;;5084612;28;20024;-45
2022/03/02 02:52:22;;;;;;;2.03;1.75;;;;;;;;;;5090382;28;20032;-47
2022/03/02 02:54:49;;;;;;;2.03;1.75;;;;;;;;;;5073369;28;20025;-50
2022/03/02 02:57:16;;;;;;;3.50;2.30;;;;;;;;;;5084855;28;20024;-48
2022/03/02 02:59:42;;;;;;;3.10;2.22;;;;;;;;;;5082789;28;20025;-46
2022/03/02 03:02:08;;;;;;;2.88;1.85;;;;;;;;;;5072516;28;20495;-46
2022/03/02 03:04:34;;;;;;;2.90;1.83;;;;;;;;;;5073577;28;20078;-46
2022/03/02 03:07:00;;;;;;;3.25;2.10;;;;;;;;;;5072467;28;20029;-48
2022/03/02 03:09:26;;;;;;;3.10;2.47;;;;;;;;;;5081851;28;20115;-48
2022/03/02 03:11:52;;;;;;;2.78;2.15;;;;;;;;;;5092054;28;20516;-51
2022/03/02 03:14:18;;;;;;;2.45;1.80;;;;;;;;;;5092602;28;20024;-53
2022/03/02 03:16:44;;;;;;;3.13;1.98;;;;;;;;;;5092942;28;20438;-46
2022/03/02 03:19:10;;;;;;;2.95;1.98;;;;;;;;;;5086349;28;20024;-49
2022/03/02 03:21:36;;;;;;;2.42;1.73;;;;;;;;;;5072995;28;20024;-49
2022/03/02 03:24:02;;;;;;;2.30;1.98;;;;;;;;;;5072435;28;20032;-50
2022/03/02 03:26:28;;;;;;;3.20;2.10;;;;;;;;;;5073312;28;20024;-49
2022/03/02 03:28:55;;;;;;;3.42;2.20;;;;;;;;;;5072027;28;20025;-51
2022/03/02 03:31:20;;;;;;;3.72;2.67;;;;;;;;;;5072439;28;20032;-49
2022/03/02 03:33:47;;;;;;;3.05;2.05;;;;;;;;;;5071913;28;20124;-47
2022/03/02 03:36:13;;;;;;;3.47;2.33;;;;;;;;;;5077411;28;20032;-50
2022/03/02 03:38:39;;;;;;;2.92;2.15;;;;;;;;;;5080878;28;20029;-48
2022/03/02 03:41:05;;;;;;;3.95;2.20;;;;;;;;;;5072183;28;20032;-46
2022/03/02 03:43:31;;;;;;;3.53;2.10;;;;;;;;;;5076190;28;20038;-50
2022/03/02 03:45:57;;;;;;;4.03;2.10;;;;;;;;;;5089271;28;20023;-51
2022/03/02 03:48:23;;;;;;;4.07;1.95;;;;;;;;;;5073559;28;20482;-50
2022/03/02 03:50:48;;;;;;;2.10;1.80;;;;;;;;;;5073285;28;20028;-49
2022/03/02 03:53:14;;;;;;;3.95;2.28;;;;;;;;;;5089938;28;20607;-47
2022/03/02 03:55:40;;;;;;;3.45;2.15;;;;;;;;;;5074220;28;20032;-52
2022/03/02 03:58:07;;;;;;;3.05;1.95;;;;;;;;;;5089827;28;20028;-48
2022/03/02 04:00:33;;;;;;;3.10;2.05;;;;;;;;;;5082362;28;20028;-50
2022/03/02 04:02:59;;;;;;;2.60;2.30;;;;;;;;;;5073191;28;20032;-46
2022/03/02 04:05:25;;;;;;;3.13;1.90;;;;;;;;;;5089938;28;20032;-47
2022/03/02 04:07:51;;;;;;;2.70;1.70;;;;;;;;;;5072418;28;20043;-49
2022/03/02 04:10:17;;;;;;;2.70;1.92;;;;;;;;;;5069458;28;20032;-47
2022/03/02 04:12:45;;;;;;;2.75;1.70;;;;;;;;;;5073771;28;20043;-49
2022/03/02 04:15:11;;;;;;;2.20;1.92;;;;;;;;;;5091144;28;20052;-49
2022/03/02 04:17:38;;;;;;;3.78;2.10;;;;;;;;;;5092214;28;20036;-52
2022/03/02 04:20:05;;;;;;;3.28;2.22;;;;;;;;;;5090238;28;20358;-49
2022/03/02 04:22:31;;;;;;;2.75;1.83;;;;;;;;;;5090487;28;20519;-48
2022/03/02 04:24:57;;;;;;;2.42;2.03;;;;;;;;;;5090846;28;20354;-52
2022/03/02 04:27:23;;;;;;;2.95;2.03;;;;;;;;;;5092196;28;20020;-48
2022/03/02 04:29:49;;;;;;;2.83;1.80;;;;;;;;;;5074077;28;20042;-49
2022/03/02 04:32:15;;;;;;;2.03;1.63;;;;;;;;;;5071162;28;20695;-47
2022/03/02 04:34:41;;;;;;;2.67;2.15;;;;;;;;;;5073001;28;20103;-46
2022/03/02 04:37:07;;;;;;;2.25;1.80;;;;;;;;;;5071409;28;20025;-49
2022/03/02 04:39:34;;;;;;;3.80;2.10;;;;;;;;;;5089181;28;20024;-46
2022/03/02 04:42:00;;;;;;;2.42;1.80;;;;;;;;;;5090244;28;20511;-47
2022/03/02 04:44:26;;;;;;;3.08;2.10;;;;;;;;;;5081891;28;20024;-49
2022/03/02 04:46:52;;;;;;;3.22;2.38;;;;;;;;;;5079670;28;20398;-46
2022/03/02 04:49:18;;;;;;;4.35;1.95;;;;;;;;;;5097000;28;20039;-46
2022/03/02 04:51:46;;;;;;;3.03;1.90;;;;;;;;;;5098339;28;20028;-50
2022/03/02 04:56:57;;;;;;;2.33;2.00;;;;;;;;;;5077893;28;20083;-53
2022/03/02 04:59:23;;;;;;;3.50;2.40;;;;;;;;;;5093975;28;20111;-46
2022/03/02 05:01:49;;;;;;;2.85;1.60;;;;;;;;;;5088985;28;20039;-46
2022/03/02 05:04:16;;;;;;;2.55;1.80;;;;;;;;;;5077835;28;20078;-48
2022/03/02 05:06:42;;;;;;;2.47;1.77;;;;;;;;;;5078327;28;20029;-47
2022/03/02 05:09:08;;;;;;;3.25;2.20;;;;;;;;;;5088437;28;20020;-47
2022/03/02 05:11:34;;;;;;;3.42;2.03;;;;;;;;;;5098502;28;20426;-47
2022/03/02 05:13:59;;;;;;;2.20;2.00;;;;;;;;;;5089005;28;20039;-48
2022/03/02 05:16:25;;;;;;;2.88;2.17;;;;;;;;;;5075116;28;20052;-47
2022/03/02 05:18:51;;;;;;;2.17;1.80;;;;;;;;;;5089691;28;20032;-51
2022/03/02 05:21:17;;;;;;;2.45;1.90;;;;;;;;;;5077040;28;20270;-50
2022/03/02 05:23:43;;;;;;;3.15;2.22;;;;;;;;;;5081895;28;20381;-51
2022/03/02 05:26:10;;;;;;;2.92;1.95;;;;;;;;;;5097369;28;20106;-51
2022/03/02 05:28:36;;;;;;;2.38;2.13;;;;;;;;;;5092255;28;20021;-47
2022/03/02 05:31:03;;;;;;;3.55;2.28;;;;;;;;;;5096410;28;20059;-47
2022/03/02 05:33:29;;;;;;;2.50;2.10;;;;;;;;;;5097887;28;20027;-45
2022/03/02 05:35:55;;;;;;;3.60;2.35;;;;;;;;;;5098138;28;20094;-47
2022/03/02 05:38:21;;;;;;;3.25;2.28;;;;;;;;;;5096775;28;20035;-46
2022/03/02 05:40:47;;;;;;;3.00;2.10;;;;;;;;;;5080116;28;20455;-45
2022/03/02 05:43:13;;;;;;;2.00;1.65;;;;;;;;;;5096337;28;20071;-45
2022/03/02 05:45:39;;;;;;;3.25;2.10;;;;;;;;;;5098571;28;20060;-46
2022/03/02 05:48:06;;;;;;;3.10;2.22;;;;;;;;;;5081476;28;20060;-46
2022/03/02 05:50:32;;;;;;;3.13;2.05;;;;;;;;;;5097775;28;20024;-47
2022/03/02 05:52:58;;;;;;;3.10;1.88;;;;;;;;;;5081872;28;20112;-51
2022/03/02 05:55:24;;;;;;;3.13;2.42;;;;;;;;;;5095359;28;20525;-47
2022/03/02 05:57:51;;;;;;;2.28;2.03;;;;;;;;;;5093353;28;20111;-46
2022/03/02 06:00:17;;;;;;;3.05;2.00;;;;;;;;;;5093308;28;20090;-46
2022/03/02 06:02:43;;;;;;;3.22;1.95;;;;;;;;;;5094707;28;20040;-50
2022/03/02 06:05:09;;;;;;;3.45;2.00;;;;;;;;;;5093358;28;20069;-46
2022/03/02 06:07:35;;;;;;;3.88;2.28;;;;;;;;;;5086212;28;20488;-46
2022/03/02 06:10:02;;;;;;;2.90;2.13;;;;;;;;;;5073501;28;20473;-51
2022/03/02 06:12:28;;;;;;;3.65;1.98;;;;;;;;;;5075525;28;20086;-45
2022/03/02 06:14:54;;;;;;;2.90;1.95;;;;;;;;;;5087038;28;20381;-46
2022/03/02 06:17:20;;;;;;;3.58;2.47;;;;;;;;;;5088296;28;20062;-46
2022/03/02 06:19:47;;;;;;;2.88;2.17;;;;;;;;;;5088148;28;20024;-47
2022/03/02 06:22:16;;;;;;;5.35;2.47;;;;;;;;;;5093161;28;20060;-48
2022/03/02 06:24:42;;;;;;;3.00;1.85;;;;;;;;;;5084077;28;20024;-48
2022/03/02 06:27:08;;;;;;;3.40;2.10;;;;;;;;;;5088545;28;20051;-49
2022/03/02 06:29:34;;;;;;;3.38;2.13;;;;;;;;;;5072577;28;20040;-49
2022/03/02 06:32:00;;;;;;;4.13;2.53;;;;;;;;;;5072913;28;20020;-53
2022/03/02 06:34:26;;;;;;;4.30;2.38;;;;;;;;;;5085080;28;20472;-49
2022/03/02 06:36:52;;;;;;;3.10;2.13;;;;;;;;;;5078847;28;20078;-51
2022/03/02 06:39:20;;;;;;;4.25;2.55;;;;;;;;;;5074002;28;20051;-48
2022/03/02 06:41:54;;;;;;;3.50;2.42;;;;;;;;;;5073749;28;20422;-49
2022/03/02 06:44:26;;;;;;;4.97;2.70;;;;;;;;;;5073419;28;20156;-49
2022/03/02 06:46:52;;;;;;;;;;;;;;;;;;5075200;28;20028;-50
2022/03/02 06:49:25;;;;;;;2.92;1.92;;;;;;;;;;5072821;28;19912;-49
2022/03/02 06:51:54;;;;;;;4.38;2.53;;;;;;;;;;5056016;28;20036;-51
2022/03/02 06:54:26;;;;;;;3.15;2.03;;;;;;;;;;5073147;28;20028;-49
2022/03/02 06:56:53;;;;;;;3.22;2.33;;;;;;;;;;5083285;28;20488;-46
2022/03/02 06:59:23;;;;;;;3.03;2.25;;;;;;;;;;5092559;28;20028;-49
2022/03/02 07:01:50;;;;;;;5.97;2.28;;;;;;;;;;5093526;28;20024;-47
2022/03/02 07:04:17;;;;;;;4.97;2.22;;;;;;;;;;5082414;28;20046;-45
2022/03/02 07:06:43;;;;;;;4.15;1.95;;;;;;;;;;5082345;28;20074;-46
2022/03/02 07:09:09;;;;;;;5.30;2.25;;;;;;;;;;5080515;28;20020;-46
2022/03/02 07:11:35;;;;;;;5.18;2.90;;;;;;;;;;5091234;28;20029;-46
2022/03/02 07:14:01;;;;;;;4.45;2.35;;;;;;;;;;5073717;28;20055;-49
2022/03/02 07:16:29;;;;;;;5.07;2.50;;;;;;;;;;5073034;28;20059;-45
2022/03/02 07:18:55;;;;;;;5.75;2.92;;;;;;;;;;5073159;28;20055;-46
2022/03/02 07:21:23;;;;;;;4.80;2.58;;;;;;;;;;5079254;28;20678;-48
2022/03/02 07:23:52;;;;;;;6.10;2.85;;;;;;;;;;5088205;28;20068;-47
2022/03/02 07:26:19;;;;;;;9.77;3.00;;;;;;;;;;5076403;28;20094;-45
2022/03/02 07:28:47;;;;;;;3.75;2.13;;;;;;;;;;5074635;28;20024;-49
2022/03/02 07:31:13;;;;;;;5.78;2.80;;;;;;;;;;5092864;28;20045;-45
2022/03/02 07:33:42;;;;;;;7.05;2.63;;;;;;;;;;5075145;28;20085;-46
2022/03/02 07:36:08;;;;;;;5.95;3.10;;;;;;;;;;5091576;28;20081;-46
2022/03/02 07:38:34;;;;;;;8.70;3.63;;;;;;;;;;5074182;28;20446;-47
2022/03/02 07:41:01;;;;;;;6.40;2.90;;;;;;;;;;5092407;28;20130;-46
2022/03/02 07:43:28;;;;;;;6.00;2.90;;;;;;;;;;5089744;28;20036;-45
2022/03/02 07:45:54;;;;;;;5.00;3.13;;;;;;;;;;5089699;28;20039;-45
2022/03/02 07:48:20;;;;;;;5.50;2.45;;;;;;;;;;5072123;28;20399;-45
2022/03/02 07:50:47;;;;;;;7.47;2.38;;;;;;;;;;5091936;28;20020;-45
2022/03/02 07:53:15;;;;;;;9.05;3.65;;;;;;;;;;5084961;28;20567;-45
2022/03/02 07:55:43;;;;;;;4.20;2.88;;;;;;;;;;5084368;28;20039;-45
2022/03/02 07:58:09;;;;;;;4.35;2.80;;;;;;;;;;5089957;28;20078;-44
2022/03/02 08:00:35;;;;;;;6.13;2.67;;;;;;;;;;5089025;28;20032;-47
2022/03/02 08:03:02;;;;;;;5.28;2.88;;;;;;;;;;5081666;28;20081;-46
2022/03/02 08:05:28;;;;;;;7.53;2.75;;;;;;;;;;5080016;28;20020;-46
2022/03/02 08:07:55;;;;;;;6.45;2.75;;;;;;;;;;5081430;28;20017;-45
2022/03/02 08:10:21;;;;;;;5.63;2.80;;;;;;;;;;5058292;28;20055;-47
2022/03/02 08:12:47;;;;;;;5.13;2.72;;;;;;;;;;5083358;28;20027;-46
2022/03/02 08:15:13;;;;;;;5.55;2.97;;;;;;;;;;5086252;28;20055;-48
2022/03/02 08:17:39;;;;;;;4.18;2.42;;;;;;;;;;5081261;28;20060;-45
2022/03/02 08:20:06;;;;;;;6.35;2.90;;;;;;;;;;5072747;28;20028;-50
2022/03/02 08:22:34;;;;;;;5.82;2.85;;;;;;;;;;5078465;28;20055;-45
2022/03/02 08:25:03;;;;;;;4.45;2.92;;;;;;;;;;5091140;28;20012;-45
2022/03/02 08:27:30;;;;;;;5.13;2.58;;;;;;;;;;5081443;28;20043;-45
2022/03/02 08:29:57;;;;;;;3.63;2.53;;;;;;;;;;5079499;28;20020;-46
2022/03/02 08:32:24;;;;;;;6.30;3.10;;;;;;;;;;5084893;28;20026;-45
2022/03/02 08:34:51;;;;;;;4.70;2.83;;;;;;;;;;5080517;28;20021;-45
2022/03/02 08:37:18;;;;;;;4.40;3.03;;;;;;;;;;5070487;28;20035;-45
2022/03/02 08:39:44;;;;;;;5.90;3.05;;;;;;;;;;5073643;28;20021;-48
2022/03/02 08:42:11;;;;;;;5.88;2.88;;;;;;;;;;5076578;28;20481;-48
2022/03/02 08:44:38;;;;;;;4.20;2.50;;;;;;;;;;5084171;28;20020;-48
2022/03/02 08:47:04;;;;;;;4.15;2.75;;;;;;;;;;5080033;28;20028;-47
2022/03/02 08:49:30;;;;;;;3.95;2.65;;;;;;;;;;5080092;28;20093;-45
2022/03/02 08:51:58;;;;;;;5.38;2.85;;;;;;;;;;5089730;28;20024;-47
2022/03/02 08:54:26;;;;;;;6.43;3.03;;;;;;;;;;5084848;28;20032;-46
2022/03/02 08:56:53;;;;;;;4.43;2.75;;;;;;;;;;5071639;28;20435;-48
2022/03/02 08:59:20;;;;;;;7.93;3.17;;;;;;;;;;5070621;28;20058;-48
2022/03/02 09:01:50;;;;;;;4.93;3.22;;;;;;;;;;5075310;28;20062;-48
2022/03/02 09:04:16;;;;;;;5.75;2.88;;;;;;;;;;5078974;28;20490;-45
2022/03/02 09:06:43;;;;;;;6.30;3.60;;;;;;;;;;5085247;28;20044;-46
2022/03/02 09:09:09;;;;;;;5.57;3.00;;;;;;;;;;5085900;28;20036;-51
2022/03/02 09:11:37;;;;;;;4.88;3.00;;;;;;;;;;5089554;28;20017;-45
2022/03/02 09:14:03;;;;;;;3.40;3.00;;;;;;;;;;5085249;28;20033;-46
2022/03/02 09:16:30;;;;;;;4.00;2.33;;;;;;;;;;5090957;28;20622;-47
2022/03/02 09:18:56;;;;;;;4.75;3.10;;;;;;;;;;5073155;28;20039;-50
2022/03/02 09:21:23;;;;;;;4.30;2.85;;;;;;;;;;5070651;28;20106;-47
2022/03/02 09:23:49;;;;;;;4.35;3.30;;;;;;;;;;5071076;28;20033;-44
2022/03/02 09:26:17;;;;;;;4.10;3.13;;;;;;;;;;5065785;28;20116;-46
2022/03/02 09:28:45;;;;;;;3.58;2.80;;;;;;;;;;5072050;28;20024;-46
2022/03/02 09:31:14;;;;;;;4.22;2.72;;;;;;;;;;5061977;28;20389;-52
2022/03/02 09:33:40;;;;;;;5.30;2.92;;;;;;;;;;5082256;28;20426;-47
2022/03/02 09:36:08;;;;;;;6.40;3.13;;;;;;;;;;5084326;28;20028;-49
2022/03/02 09:38:34;;;;;;;7.95;3.55;;;;;;;;;;5084641;28;20033;-46
2022/03/02 09:41:05;;;;;;;6.03;3.60;;;;;;;;;;5084715;28;20419;-46
2022/03/02 09:43:31;;;;;;;4.07;2.78;;;;;;;;;;5088748;28;20803;-44
2022/03/02 09:45:58;;;;;;;5.00;3.25;;;;;;;;;;5075851;28;20029;-44
2022/03/02 09:48:29;;;;;;;4.50;3.22;;;;;;;;;;5089998;28;20040;-46
2022/03/02 09:50:58;;;;;;;4.32;3.05;;;;;;;;;;5093776;28;20475;-44
2022/03/02 09:53:27;;;;;;;5.38;3.28;;;;;;;;;;5084941;28;20028;-44
2022/03/02 09:55:55;;;;;;;3.90;2.80;;;;;;;;;;5094064;28;20020;-45
2022/03/02 09:58:22;;;;;;;5.45;2.65;;;;;;;;;;5079570;28;20036;-44
2022/03/02 10:00:48;;;;;;;5.05;2.92;;;;;;;;;;5077825;28;20161;-47
2022/03/02 10:03:18;;;;;;;4.80;3.08;;;;;;;;;;5081212;28;20036;-45
2022/03/02 10:05:45;;;;;;;4.93;3.00;;;;;;;;;;5082325;28;20153;-46
2022/03/02 10:08:11;;;;;;;5.10;3.20;;;;;;;;;;5073562;28;20033;-51
2022/03/02 10:10:39;;;;;;;3.92;2.75;;;;;;;;;;5074434;28;20025;-46
2022/03/02 10:13:09;;;;;;;4.20;2.85;;;;;;;;;;5087905;28;20024;-45
2022/03/02 10:15:36;;;;;;;4.15;2.50;;;;;;;;;;5075195;28;20044;-45
2022/03/02 10:18:03;;;;;;;3.97;2.65;;;;;;;;;;5074194;28;20028;-45
2022/03/02 10:20:30;;;;;;;5.72;2.90;;;;;;;;;;5086132;28;20039;-44
2022/03/02 10:23:18;;;;;;;4.38;2.72;;;;;;;;;;5087779;28;20431;-45
2022/03/02 10:26:03;;;;;;;4.20;2.95;;;;;;;;;;5086788;28;20374;-46
2022/03/02 10:28:47;;;;;;;4.68;3.22;;;;;;;;;;5085951;28;20103;-45
2022/03/02 10:31:13;;;;;;;4.50;2.58;;;;;;;;;;5091313;28;20028;-47
2022/03/02 10:33:42;;;;;;;8.68;3.42;;;;;;;;;;5093566;28;20024;-47
2022/03/02 10:36:10;;;;;;;3.67;2.45;;;;;;;;;;5085139;28;20121;-51
2022/03/02 10:38:46;;;;;;;3.50;2.60;;;;;;;;;;5075464;28;20028;-46
2022/03/02 10:41:13;;;;;;;5.05;2.90;;;;;;;;;;5080729;28;20120;-49
2022/03/02 10:43:40;;;;;;;5.22;2.72;;;;;;;;;;5086444;28;20039;-47
2022/03/02 10:46:08;;;;;;;4.68;3.00;;;;;;;;;;5093987;28;20158;-45
2022/03/02 10:48:46;;;;;;;4.43;3.13;;;;;;;;;;5077662;28;20035;-48
2022/03/02 10:51:14;;;;;;;4.82;3.17;;;;;;;;;;5073446;28;20032;-44
2022/03/02 10:53:40;;;;;;;4.10;2.78;;;;;;;;;;5090577;28;20031;-48
2022/03/02 10:56:08;;;;;;;4.10;3.00;;;;;;;;;;5085471;28;20028;-45
2022/03/02 10:58:34;;;;;;;5.47;2.65;;;;;;;;;;5072507;28;20028;-45
2022/03/02 11:01:01;;;;;;;4.75;2.70;;;;;;;;;;5091659;28;20259;-45
2022/03/02 11:03:28;;;;;;;5.15;3.22;;;;;;;;;;5090588;28;20431;-45
2022/03/02 11:06:00;;;;;;;4.45;2.72;;;;;;;;;;5082156;28;20024;-45
2022/03/02 11:08:26;;;;;;;4.72;2.85;;;;;;;;;;5075265;28;20127;-46
2022/03/02 11:10:52;;;;;;;4.78;2.45;;;;;;;;;;5072918;28;20048;-48
2022/03/02 11:13:20;;;;;;;4.60;2.85;;;;;;;;;;5072279;28;20020;-47
2022/03/02 11:15:51;;;;;;;4.93;2.47;;;;;;;;;;5073013;28;20044;-46
2022/03/02 11:18:19;;;;;;;7.33;2.53;;;;;;;;;;5073615;28;20040;-45
2022/03/02 11:20:53;;;;;;;4.68;2.83;;;;;;;;;;5085999;28;20495;-48
2022/03/02 11:23:23;;;;;;;4.90;3.10;;;;;;;;;;5092371;28;20032;-47
2022/03/02 11:25:50;;;;;;;4.90;3.33;;;;;;;;;;5065290;28;20031;-46
2022/03/02 11:28:18;;;;;;;4.38;2.85;;;;;;;;;;5079098;28;20028;-46
2022/03/02 11:30:52;;;;;;;4.38;3.03;;;;;;;;;;5072684;28;20036;-49
2022/03/02 11:33:22;;;;;;;3.53;2.35;;;;;;;;;;5076129;28;20078;-47
2022/03/02 11:35:48;;;;;;;4.03;2.83;;;;;;;;;;5076317;28;20436;-45
2022/03/02 11:38:18;;;;;;;4.57;2.75;;;;;;;;;;5076939;28;20102;-52
2022/03/02 11:40:47;;;;;;;4.63;2.58;;;;;;;;;;5072742;28;20024;-46
2022/03/02 11:43:14;;;;;;;4.00;2.75;;;;;;;;;;5088595;28;20393;-50
2022/03/02 11:45:40;;;;;;;4.43;2.80;;;;;;;;;;5084821;28;20422;-47
2022/03/02 11:48:10;;;;;;;3.38;2.63;;;;;;;;;;5084594;28;20032;-44
2022/03/02 11:50:36;;;;;;;4.55;3.35;;;;;;;;;;5080554;28;20024;-46
2022/03/02 11:53:06;;;;;;;4.70;3.00;;;;;;;;;;5087677;28;20046;-45
2022/03/02 11:55:33;;;;;;;3.67;2.30;;;;;;;;;;5071516;28;20630;-45
2022/03/02 11:58:00;;;;;;;3.80;2.50;;;;;;;;;;5091400;28;20067;-44
2022/03/02 12:00:30;;;;;;;5.03;2.53;;;;;;;;;;5080033;28;20346;-46
2022/03/02 12:03:02;;;;;;;5.03;3.00;;;;;;;;;;5091059;28;20069;-44
2022/03/02 12:05:28;;;;;;;;;;;;;;;;;;5092149;28;20110;-47
2022/03/02 12:08:01;;;;;;;5.40;2.60;;;;;;;;;;5091093;28;20416;-47
2022/03/02 12:10:31;;;;;;;5.07;3.13;;;;;;;;;;5072969;28;20036;-48
2022/03/02 12:12:58;;;;;;;4.68;3.30;;;;;;;;;;5086603;28;20077;-46
2022/03/02 12:15:26;;;;;;;5.85;2.70;;;;;;;;;;5087925;28;20527;-44
2022/03/02 12:17:53;;;;;;;4.75;2.72;;;;;;;;;;5085496;28;20032;-44
2022/03/02 12:20:20;;;;;;;4.60;2.78;;;;;;;;;;5071479;28;20020;-45
2022/03/02 12:22:48;;;;;;;6.20;3.47;;;;;;;;;;5079164;28;20028;-44
2022/03/02 12:25:16;;;;;;;3.47;2.55;;;;;;;;;;5089947;28;20030;-49
2022/03/02 12:27:42;;;;;;;4.38;2.60;;;;;;;;;;5091352;28;20028;-48
2022/03/02 12:30:10;;;;;;;4.60;2.85;;;;;;;;;;5082350;28;20028;-44
2022/03/02 12:32:37;;;;;;;3.67;3.10;;;;;;;;;;5072783;28;20029;-45
2022/03/02 12:35:05;;;;;;;3.42;2.50;;;;;;;;;;5075615;28;20056;-45
2022/03/02 12:37:32;;;;;;;3.25;2.85;;;;;;;;;;5081907;28;20477;-46
2022/03/02 12:39:58;;;;;;;6.05;3.20;;;;;;;;;;5082911;28;20099;-44
2022/03/02 12:42:24;;;;;;;4.20;3.00;;;;;;;;;;5082634;28;20067;-47
2022/03/02 12:44:55;;;;;;;4.28;2.80;;;;;;;;;;5072123;28;20060;-44
2022/03/02 12:47:25;;;;;;;7.35;4.38;;;;;;;;;;5072604;28;20041;-45
2022/03/02 12:49:51;;;;;;;9.98;6.35;;;;;;;;;;5082831;28;20034;-46
2022/03/02 12:52:18;;;;;;;11.10;7.00;;;;;;;;;;5090806;28;20070;-50
2022/03/02 12:54:45;;;;;;;11.70;6.38;;;;;;;;;;5086697;28;20027;-48
2022/03/02 12:57:12;;;;;;;6.20;4.28;;;;;;;;;;5080048;28;20063;-46
2022/03/02 12:59:38;;;;;;;8.52;4.90;;;;;;;;;;5070362;28;20117;-49
2022/03/02 13:02:06;;;;;;;6.80;4.80;;;;;;;;;;5080208;28;20465;-46
2022/03/02 13:04:51;;;;;;;7.35;5.05;;;;;;;;;;5090303;28;20085;-44
2022/03/02 13:07:26;;;;;;;6.72;4.15;;;;;;;;;;5093233;28;20035;-51
2022/03/02 13:09:52;;;;;;;4.85;4.07;;;;;;;;;;5085420;28;20028;-49
2022/03/02 13:12:25;;;;;;;7.10;4.47;;;;;;;;;;5094666;28;20078;-48
2022/03/02 13:14:51;;;;;;;6.50;3.95;;;;;;;;;;5093472;28;20047;-45
2022/03/02 13:17:19;;;;;;;5.93;3.45;;;;;;;;;;5088736;28;20037;-49
2022/03/02 13:19:46;;;;;;;6.15;4.22;;;;;;;;;;5075082;28;20789;-45
2022/03/02 13:22:22;;;;;;;7.78;4.50;;;;;;;;;;5059134;28;20042;-44
2022/03/02 13:24:48;;;;;;;5.72;3.45;;;;;;;;;;5079081;28;20058;-45
2022/03/02 13:27:16;;;;;;;5.63;3.08;;;;;;;;;;5083395;28;20477;-47
2022/03/02 13:30:01;;;;;;;6.90;3.42;;;;;;;;;;5081426;28;20020;-44
2022/03/02 13:32:38;;;;;;;5.95;3.58;;;;;;;;;;5084790;28;20036;-45
2022/03/02 13:35:09;;;;;;;4.47;3.00;;;;;;;;;;5093693;28;20415;-45
2022/03/02 13:37:54;;;;;;;4.82;3.08;;;;;;;;;;5074411;28;20028;-44
2022/03/02 13:40:32;;;;;;;3.20;2.40;;;;;;;;;;5074473;28;20028;-49
2022/03/02 13:43:07;;;;;;;5.18;3.38;;;;;;;;;;5082593;28;20033;-50
2022/03/02 13:45:56;;;;;;;4.22;2.95;;;;;;;;;;5079296;28;20028;-45
2022/03/02 13:48:26;;;;;;;3.58;2.50;;;;;;;;;;5085786;28;20047;-49
2022/03/02 13:51:02;;;;;;;6.43;3.38;;;;;;;;;;5082714;28;20034;-44
2022/03/02 13:53:35;;;;;;;3.70;2.72;;;;;;;;;;5088266;28;20024;-44
2022/03/02 13:56:09;;;;;;;5.13;3.15;;;;;;;;;;5093627;28;20103;-45
2022/03/02 13:58:35;;;;;;;4.28;3.08;;;;;;;;;;5090240;28;20025;-44
2022/03/02 14:01:22;;;;;;;5.07;3.03;;;;;;;;;;5077738;28;20020;-45
2022/03/02 14:04:08;;;;;;;4.78;2.60;;;;;;;;;;5084780;28;20036;-46
2022/03/02 14:06:36;;;;;;;3.17;2.53;;;;;;;;;;5079464;28;20024;-45
2022/03/02 14:09:03;;;;;;;3.72;2.53;;;;;;;;;;5084385;28;20499;-45
2022/03/02 14:11:47;;;;;;;4.47;3.13;;;;;;;;;;5086389;28;20524;-44
2022/03/02 14:14:16;;;;;;;4.47;2.67;;;;;;;;;;5093431;28;20465;-44
2022/03/02 14:16:51;;;;;;;4.10;2.78;;;;;;;;;;5079780;28;20044;-45
2022/03/02 14:19:17;;;;;;;3.50;2.35;;;;;;;;;;5090136;28;20032;-49
2022/03/02 14:21:54;;;;;;;3.38;2.55;;;;;;;;;;5092112;28;20036;-44
2022/03/02 14:24:20;;;;;;;3.17;2.53;;;;;;;;;;5091019;28;20030;-50
2022/03/02 14:26:52;;;;;;;3.38;2.72;;;;;;;;;;5073946;28;20066;-47
2022/03/02 14:29:20;;;;;;;;;;;;;;;;;;5075026;28;20028;-49
2022/03/02 14:32:04;;;;;;;3.90;2.75;;;;;;;;;;5080448;28;19944;-49
2022/03/02 14:34:48;;;;;;;3.45;2.38;;;;;;;;;;5076138;28;20037;-45
2022/03/02 14:37:16;;;;;;;3.25;2.30;;;;;;;;;;5090710;28;20108;-48
2022/03/02 14:39:55;;;;;;;3.03;2.28;;;;;;;;;;5091833;28;20038;-46
2022/03/02 14:42:22;;;;;;;4.93;2.60;;;;;;;;;;5077152;28;20066;-51
2022/03/02 14:45:04;;;;;;;3.45;2.70;;;;;;;;;;5087128;28;20027;-45
2022/03/02 14:47:30;;;;;;;3.40;2.22;;;;;;;;;;5088086;28;20549;-50
2022/03/02 14:49:56;;;;;;;3.47;2.05;;;;;;;;;;5093828;28;20060;-46